createdAt,value
2022-11-08T00:00:51.629Z,98513.41
2022-11-08T00:03:58.387Z,98520.25
2022-11-08T00:07:22.995Z,98519.31
2022-11-08T00:10:45.288Z,98521.03
2022-11-08T00:14:03.286Z,98515.81
2022-11-08T00:17:10.327Z,98513.97
2022-11-08T00:20:16.125Z,98519.06
2022-11-08T00:23:25.645Z,98518.00
2022-11-08T00:26:31.480Z,98505.13
2022-11-08T00:29:38.585Z,98518.94
2022-11-08T00:32:44.754Z,98522.47
2022-11-08T00:35:51.245Z,98519.00
2022-11-08T00:38:59.639Z,98523.44
2022-11-08T00:42:08.835Z,98522.59
2022-11-08T00:45:14.479Z,98527.81
2022-11-08T00:48:21.403Z,98525.06
2022-11-08T00:51:29.824Z,98520.78
2022-11-08T00:54:39.322Z,98524.28
2022-11-08T00:58:00.841Z,98520.91
2022-11-08T01:01:13.303Z,98509.53
2022-11-08T01:04:21.505Z,98513.84
2022-11-08T01:07:28.011Z,98511.25
2022-11-08T01:10:36.432Z,98518.22
2022-11-08T01:13:43.217Z,98512.22
2022-11-08T01:16:48.847Z,98502.63
2022-11-08T01:19:55.327Z,98512.22
2022-11-08T01:23:00.956Z,98518.44
2022-11-08T01:26:13.969Z,98514.09
2022-11-08T01:29:19.633Z,98514.22
2022-11-08T01:32:26.060Z,98515.16
2022-11-08T01:35:33.826Z,98510.84
2022-11-08T01:38:40.359Z,98507.34
2022-11-08T01:41:48.716Z,98505.63
2022-11-08T01:45:03.307Z,98514.22
2022-11-08T01:48:09.126Z,98508.09
2022-11-08T01:51:19.900Z,98503.66
2022-11-08T01:54:31.785Z,98502.84
2022-11-08T01:57:47.308Z,98503.66
2022-11-08T02:00:53.379Z,98496.88
2022-11-08T02:04:03.310Z,98506.47
2022-11-08T02:07:10.600Z,98505.75
2022-11-08T02:10:17.112Z,98504.19
2022-11-08T02:13:28.322Z,98491.34
2022-11-08T02:16:34.911Z,98499.34
2022-11-08T02:19:46.049Z,98503.88
2022-11-08T02:22:59.741Z,98497.94
2022-11-08T02:26:09.630Z,98492.84
2022-11-08T02:29:30.661Z,98499.75
2022-11-08T02:32:41.221Z,98503.34
2022-11-08T02:35:51.849Z,98499.13
2022-11-08T02:39:00.853Z,98498.34
2022-11-08T02:42:10.584Z,98494.09
2022-11-08T02:45:17.241Z,98501.97
2022-11-08T02:48:23.732Z,98493.38
2022-11-08T02:51:30.248Z,98491.66
2022-11-08T02:54:35.900Z,98484.75
2022-11-08T02:57:45.155Z,98487.28
2022-11-08T03:00:51.230Z,98496.88
2022-11-08T03:03:57.715Z,98491.81
2022-11-08T03:07:03.340Z,98491.94
2022-11-08T03:10:10.876Z,98494.59
2022-11-08T03:13:19.536Z,98497.41
2022-11-08T03:16:26.128Z,98493.28
2022-11-08T03:19:31.716Z,98497.84
2022-11-08T03:22:38.189Z,98492.81
2022-11-08T03:25:44.028Z,98489.44
2022-11-08T03:28:53.312Z,98494.66
2022-11-08T03:31:58.948Z,98494.66
2022-11-08T03:35:07.184Z,98496.44
2022-11-08T03:38:12.784Z,98493.00
2022-11-08T03:41:19.241Z,98501.81
2022-11-08T03:44:27.903Z,98507.16
2022-11-08T03:47:34.393Z,98505.44
2022-11-08T03:50:40.024Z,98495.94
2022-11-08T03:53:46.482Z,98492.53
2022-11-08T03:56:52.374Z,98493.44
2022-11-08T04:00:03.071Z,98489.13
2022-11-08T04:03:17.172Z,98490.06
2022-11-08T04:06:23.849Z,98495.28
2022-11-08T04:09:29.452Z,98491.84
2022-11-08T04:12:51.814Z,98485.06
2022-11-08T04:16:01.186Z,98489.56
2022-11-08T04:19:23.949Z,98487.25
2022-11-08T04:22:29.594Z,98476.34
2022-11-08T04:25:36.059Z,98487.19
2022-11-08T04:28:42.909Z,98491.06
2022-11-08T04:31:52.161Z,98483.59
2022-11-08T04:34:57.849Z,98490.94
2022-11-08T04:38:06.041Z,98489.56
2022-11-08T04:41:14.671Z,98486.28
2022-11-08T04:44:21.361Z,98486.44
2022-11-08T04:47:36.006Z,98480.53
2022-11-08T04:50:45.400Z,98473.94
2022-11-08T04:53:51.168Z,98482.88
2022-11-08T04:56:57.617Z,98474.59
2022-11-08T05:00:03.900Z,98480.91
2022-11-08T05:03:13.133Z,98474.16
2022-11-08T05:06:21.209Z,98488.94
2022-11-08T05:09:27.746Z,98483.81
2022-11-08T05:12:33.461Z,98478.69
2022-11-08T05:15:40.070Z,98482.19
2022-11-08T05:18:48.941Z,98477.88
2022-11-08T05:22:11.405Z,98481.38
2022-11-08T05:25:18.004Z,98482.28
2022-11-08T05:28:24.975Z,98479.69
2022-11-08T05:31:30.671Z,98487.47
2022-11-08T05:34:39.972Z,98488.28
2022-11-08T05:37:45.675Z,98494.28
2022-11-08T05:40:52.358Z,98499.50
2022-11-08T05:43:58.628Z,98489.97
2022-11-08T05:47:08.148Z,98491.78
2022-11-08T05:53:50.769Z,98502.88
2022-11-08T05:56:56.451Z,98503.69
2022-11-08T06:00:04.239Z,98508.88
2022-11-08T06:03:20.959Z,98512.28
2022-11-08T06:06:31.995Z,98507.06
2022-11-08T06:09:37.646Z,98503.56
2022-11-08T06:12:44.736Z,98515.56
2022-11-08T06:15:52.080Z,98513.78
2022-11-08T06:18:58.619Z,98529.31
2022-11-08T06:22:07.117Z,98525.75
2022-11-08T06:25:13.871Z,98524.91
2022-11-08T06:28:19.544Z,98530.97
2022-11-08T06:31:26.003Z,98534.47
2022-11-08T06:34:31.599Z,98530.97
2022-11-08T06:37:41.138Z,98530.88
2022-11-08T06:40:47.747Z,98530.75
2022-11-08T06:43:54.223Z,98532.34
2022-11-08T06:47:00.214Z,98536.56
2022-11-08T06:50:10.729Z,98530.22
2022-11-08T06:53:19.347Z,98532.75
2022-11-08T06:56:25.945Z,98523.09
2022-11-08T06:59:32.386Z,98524.66
2022-11-08T07:02:38.997Z,98523.59
2022-11-08T07:05:45.009Z,98516.47
2022-11-08T07:08:54.357Z,98522.31
2022-11-08T07:12:00.289Z,98525.50
2022-11-08T07:15:09.676Z,98525.03
2022-11-08T07:18:18.084Z,98526.28
2022-11-08T07:21:25.036Z,98528.38
2022-11-08T07:24:33.522Z,98528.72
2022-11-08T07:27:40.002Z,98531.78
2022-11-08T07:30:45.692Z,98533.09
2022-11-08T07:33:52.154Z,98531.88
2022-11-08T07:36:58.179Z,98525.75
2022-11-08T07:40:10.158Z,98535.50
2022-11-08T07:43:16.792Z,98532.38
2022-11-08T07:46:24.011Z,98532.63
2022-11-08T07:49:29.647Z,98528.75
2022-11-08T07:52:36.234Z,98526.50
2022-11-08T07:55:45.064Z,98525.91
2022-11-08T07:58:53.366Z,98515.22
2022-11-08T08:01:59.000Z,98524.94
2022-11-08T08:05:08.403Z,98523.75
2022-11-08T08:08:15.829Z,98522.13
2022-11-08T08:11:29.442Z,98533.72
2022-11-08T08:14:38.243Z,98533.31
2022-11-08T08:17:44.932Z,98537.13
2022-11-08T08:20:50.670Z,98537.56
2022-11-08T08:23:57.184Z,98533.59
2022-11-08T08:27:08.667Z,98532.28
2022-11-08T08:30:15.572Z,98531.84
2022-11-08T08:33:28.461Z,98528.84
2022-11-08T08:36:36.348Z,98533.72
2022-11-08T08:39:42.301Z,98536.91
2022-11-08T08:42:51.602Z,98535.56
2022-11-08T08:45:57.759Z,98522.28
2022-11-08T08:49:04.522Z,98531.19
2022-11-08T08:52:10.169Z,98525.59
2022-11-08T08:55:16.687Z,98529.53
2022-11-08T08:58:25.337Z,98531.69
2022-11-08T09:04:40.373Z,98539.06
2022-11-08T09:07:47.043Z,98527.44
2022-11-08T09:10:56.640Z,98531.38
2022-11-08T09:14:06.365Z,98539.69
2022-11-08T09:17:12.077Z,98527.19
2022-11-08T09:20:19.007Z,98537.31
2022-11-08T09:23:24.646Z,98533.38
2022-11-08T09:26:31.167Z,98530.28
2022-11-08T09:29:40.022Z,98522.00
2022-11-08T09:33:00.123Z,98529.44
2022-11-08T09:36:11.322Z,98523.78
2022-11-08T09:39:18.802Z,98522.66
2022-11-08T09:42:42.569Z,98520.47
2022-11-08T09:45:56.164Z,98521.81
2022-11-08T09:49:06.327Z,98518.69
2022-11-08T09:52:22.863Z,98519.28
2022-11-08T09:55:35.038Z,98512.00
2022-11-08T09:58:46.165Z,98508.13
2022-11-08T10:01:54.675Z,98500.75
2022-11-08T10:05:06.038Z,98501.16
2022-11-08T10:08:20.366Z,98497.16
2022-11-08T10:11:49.045Z,98488.75
2022-11-08T10:15:13.630Z,98493.44
2022-11-08T10:18:40.164Z,98478.19
2022-11-08T10:21:56.783Z,98483.91
2022-11-08T10:25:06.381Z,98484.59
2022-11-08T10:28:17.999Z,98486.75
2022-11-08T10:31:24.872Z,98478.41
2022-11-08T10:34:42.144Z,98471.78
2022-11-08T10:37:53.595Z,98471.19
2022-11-08T10:41:03.971Z,98470.66
2022-11-08T10:44:16.179Z,98463.16
2022-11-08T10:47:27.239Z,98454.97
2022-11-08T10:50:49.019Z,98462.19
2022-11-08T10:53:54.673Z,98467.13
2022-11-08T10:57:01.183Z,98454.31
2022-11-08T11:00:20.772Z,98447.72
2022-11-08T11:03:29.988Z,98451.66
2022-11-08T11:06:38.585Z,98442.41
2022-11-08T11:09:45.260Z,98439.28
2022-11-08T11:12:56.162Z,98438.03
2022-11-08T11:16:06.470Z,98430.44
2022-11-08T11:19:18.677Z,98433.28
2022-11-08T11:22:32.465Z,98429.94
2022-11-08T11:25:38.494Z,98428.50
2022-11-08T11:29:17.845Z,98425.38
2022-11-08T11:32:26.816Z,98422.22
2022-11-08T11:35:45.901Z,98419.69
2022-11-08T11:39:01.196Z,98408.75
2022-11-08T11:42:43.715Z,98422.06
2022-11-08T11:45:50.338Z,98419.03
2022-11-08T11:49:03.470Z,98415.94
2022-11-08T11:52:17.826Z,98408.22
2022-11-08T11:55:34.494Z,98421.63
2022-11-08T11:58:59.716Z,98408.25
2022-11-08T12:02:33.478Z,98407.81
2022-11-08T12:05:57.736Z,98403.28
2022-11-08T12:09:19.150Z,98394.63
2022-11-08T12:12:41.391Z,98396.94
2022-11-08T12:15:54.951Z,98395.66
2022-11-08T12:19:19.055Z,98395.22
2022-11-08T12:22:47.643Z,98396.59
2022-11-08T12:25:59.882Z,98392.88
2022-11-08T12:29:32.758Z,98390.56
2022-11-08T12:32:58.859Z,98386.94
2022-11-08T12:36:17.126Z,98377.13
2022-11-08T12:39:33.545Z,98383.16
2022-11-08T12:43:03.702Z,98380.50
2022-11-08T12:46:18.484Z,98375.94
2022-11-08T12:49:39.728Z,98384.59
2022-11-08T12:52:58.444Z,98374.03
2022-11-08T12:56:08.676Z,98373.09
2022-11-08T12:59:24.225Z,98367.59
2022-11-08T13:02:37.187Z,98373.59
2022-11-08T13:05:48.769Z,98362.84
2022-11-08T13:09:06.109Z,98368.09
2022-11-08T13:12:33.455Z,98371.50
2022-11-08T13:15:40.152Z,98371.50
2022-11-08T13:18:53.542Z,98362.66
2022-11-08T13:22:00.025Z,98360.72
2022-11-08T13:25:28.249Z,98362.66
2022-11-08T13:28:42.915Z,98358.09
2022-11-08T13:31:55.589Z,98360.72
2022-11-08T13:35:12.238Z,98366.00
2022-11-08T13:38:30.868Z,98359.88
2022-11-08T13:42:06.873Z,98353.75
2022-11-08T13:45:28.164Z,98355.44
2022-11-08T13:48:41.066Z,98358.09
2022-11-08T13:51:51.700Z,98355.44
2022-11-08T13:54:58.226Z,98350.16
2022-11-08T13:58:31.593Z,98343.19
2022-11-08T14:02:03.481Z,98352.28
2022-11-08T14:05:44.805Z,98351.66
2022-11-08T14:09:03.390Z,98344.06
2022-11-08T14:12:16.802Z,98345.13
2022-11-08T14:15:29.735Z,98341.16
2022-11-08T14:18:39.412Z,98341.03
2022-11-08T14:21:50.826Z,98341.16
2022-11-08T14:25:12.076Z,98327.44
2022-11-08T14:28:29.550Z,98333.56
2022-11-08T14:31:36.826Z,98332.34
2022-11-08T14:34:43.491Z,98338.69
2022-11-08T14:37:49.287Z,98341.63
2022-11-08T14:41:04.736Z,98339.31
2022-11-08T14:44:19.089Z,98336.19
2022-11-08T14:47:30.522Z,98334.81
2022-11-08T14:50:38.026Z,98326.25
2022-11-08T14:53:49.919Z,98337.28
2022-11-08T14:56:58.596Z,98331.69
2022-11-08T15:00:12.573Z,98334.16
2022-11-08T15:03:22.332Z,98330.34
2022-11-08T15:06:34.238Z,98334.38
2022-11-08T15:09:40.417Z,98333.09
2022-11-08T15:12:50.008Z,98339.69
2022-11-08T15:15:58.605Z,98336.03
2022-11-08T15:19:21.379Z,98331.38
2022-11-08T15:22:29.517Z,98329.50
2022-11-08T15:25:38.390Z,98319.69
2022-11-08T15:28:57.817Z,98319.44
2022-11-08T15:32:06.838Z,98321.13
2022-11-08T15:35:25.729Z,98326.03
2022-11-08T15:38:37.603Z,98323.06
2022-11-08T15:41:44.311Z,98314.84
2022-11-08T15:45:09.932Z,98325.97
2022-11-08T15:48:23.936Z,98319.53
2022-11-08T15:51:30.375Z,98321.09
2022-11-08T15:54:35.997Z,98306.88
2022-11-08T15:57:45.802Z,98311.03
2022-11-08T16:00:54.290Z,98312.38
2022-11-08T16:04:00.723Z,98316.41
2022-11-08T16:07:07.569Z,98308.28
2022-11-08T16:10:14.635Z,98304.44
2022-11-08T16:13:24.632Z,98306.63
2022-11-08T16:16:35.194Z,98313.72
2022-11-08T16:19:40.903Z,98311.50
2022-11-08T16:22:47.701Z,98313.47
2022-11-08T16:25:56.070Z,98311.88
2022-11-08T16:29:03.372Z,98319.94
2022-11-08T16:32:12.965Z,98320.31
2022-11-08T16:35:19.759Z,98321.63
2022-11-08T16:38:27.811Z,98328.19
2022-11-08T16:41:37.641Z,98328.53
2022-11-08T16:44:45.805Z,98332.31
2022-11-08T16:47:55.603Z,98323.88
2022-11-08T16:51:03.434Z,98327.59
2022-11-08T16:54:20.507Z,98334.06
2022-11-08T16:57:34.821Z,98337.94
2022-11-08T17:00:42.802Z,98334.84
2022-11-08T17:03:51.457Z,98331.56
2022-11-08T17:06:58.046Z,98335.19
2022-11-08T17:10:03.702Z,98332.56
2022-11-08T17:13:10.407Z,98334.63
2022-11-08T17:16:16.682Z,98336.69
2022-11-08T17:19:25.956Z,98326.34
2022-11-08T17:22:31.667Z,98334.41
2022-11-08T17:25:40.043Z,98338.91
2022-11-08T17:28:45.690Z,98342.63
2022-11-08T17:31:52.506Z,98343.84
2022-11-08T17:35:00.963Z,98335.56
2022-11-08T17:38:09.657Z,98344.72
2022-11-08T17:41:17.324Z,98345.16
2022-11-08T17:44:23.765Z,98349.81
2022-11-08T17:47:30.909Z,98351.81
2022-11-08T17:50:40.539Z,98343.56
2022-11-08T17:53:47.037Z,98347.44
2022-11-08T17:56:53.490Z,98344.38
2022-11-08T17:59:59.216Z,98341.34
2022-11-08T18:03:12.562Z,98341.59
2022-11-08T18:06:21.103Z,98346.59
2022-11-08T18:09:27.794Z,98342.72
2022-11-08T18:12:33.368Z,98358.06
2022-11-08T18:15:39.850Z,98350.91
2022-11-08T18:18:46.695Z,98351.59
2022-11-08T18:21:56.038Z,98343.47
2022-11-08T18:25:03.023Z,98346.94
2022-11-08T18:28:10.031Z,98350.31
2022-11-08T18:31:18.644Z,98344.22
2022-11-08T18:34:25.118Z,98344.31
2022-11-08T18:37:34.681Z,98350.47
2022-11-08T18:40:41.211Z,98353.25
2022-11-08T18:43:47.601Z,98348.09
2022-11-08T18:46:54.074Z,98348.22
2022-11-08T18:50:03.858Z,98349.13
2022-11-08T18:53:14.152Z,98345.75
2022-11-08T18:56:19.729Z,98342.53
2022-11-08T18:59:26.175Z,98354.09
2022-11-08T19:02:31.829Z,98346.41
2022-11-08T19:05:38.347Z,98343.88
2022-11-08T19:08:47.607Z,98353.78
2022-11-08T19:11:54.287Z,98347.09
2022-11-08T19:14:59.918Z,98356.06
2022-11-08T19:18:08.975Z,98353.59
2022-11-08T19:21:17.634Z,98364.13
2022-11-08T19:24:26.896Z,98358.25
2022-11-08T19:27:32.758Z,98360.91
2022-11-08T19:30:39.239Z,98361.94
2022-11-08T19:33:45.098Z,98376.88
2022-11-08T19:36:55.813Z,98363.78
2022-11-08T19:40:06.511Z,98367.28
2022-11-08T19:43:13.168Z,98365.69
2022-11-08T19:46:21.422Z,98358.69
2022-11-08T19:49:30.974Z,98357.91
2022-11-08T19:52:38.109Z,98361.41
2022-11-08T19:55:50.288Z,98362.25
2022-11-08T19:58:57.043Z,98365.94
2022-11-08T20:02:04.463Z,98361.81
2022-11-08T20:05:12.559Z,98364.47
2022-11-08T20:08:20.668Z,98365.66
2022-11-08T20:11:31.705Z,98370.97
2022-11-08T20:14:41.627Z,98363.22
2022-11-08T20:17:48.253Z,98368.59
2022-11-08T20:20:58.935Z,98363.53
2022-11-08T20:24:06.407Z,98369.81
2022-11-08T20:27:16.803Z,98366.59
2022-11-08T20:30:22.456Z,98373.03
2022-11-08T20:33:28.949Z,98368.00
2022-11-08T20:36:37.616Z,98370.00
2022-11-08T20:39:44.231Z,98372.03
2022-11-08T20:42:52.996Z,98368.78
2022-11-08T20:46:06.340Z,98369.88
2022-11-08T20:49:12.167Z,98359.09
2022-11-08T20:52:22.485Z,98364.03
2022-11-08T20:55:29.610Z,98372.81
2022-11-08T20:58:39.526Z,98367.56
2022-11-08T21:01:45.193Z,98363.44
2022-11-08T21:04:51.681Z,98372.09
2022-11-08T21:11:24.126Z,98363.63
2022-11-08T21:14:32.769Z,98372.41
2022-11-08T21:17:39.187Z,98365.50
2022-11-08T21:20:44.907Z,98371.88
2022-11-08T21:23:52.511Z,98364.25
2022-11-08T21:26:58.087Z,98365.25
2022-11-08T21:30:07.889Z,98367.88
2022-11-08T21:33:13.542Z,98361.94
2022-11-08T21:36:20.735Z,98365.41
2022-11-08T21:39:26.506Z,98358.50
2022-11-08T21:42:38.025Z,98361.16
2022-11-08T21:45:48.050Z,98360.19
2022-11-08T21:48:57.188Z,98354.25
2022-11-08T21:52:03.807Z,98361.03
2022-11-08T21:55:11.773Z,98364.56
2022-11-08T21:58:17.570Z,98361.88
2022-11-08T22:01:30.531Z,98360.19
2022-11-08T22:04:36.661Z,98367.25
2022-11-08T22:07:43.196Z,98359.47
2022-11-08T22:10:49.510Z,98356.94
2022-11-08T22:13:55.969Z,98360.47
2022-11-08T22:17:06.303Z,98363.88
2022-11-08T22:20:13.606Z,98360.56
2022-11-08T22:23:19.473Z,98366.53
2022-11-08T22:26:25.938Z,98356.09
2022-11-08T22:29:31.566Z,98363.06
2022-11-08T22:32:40.853Z,98369.94
2022-11-08T22:35:46.618Z,98372.47
2022-11-08T22:38:53.193Z,98367.25
2022-11-08T22:41:58.906Z,98362.16
2022-11-08T22:45:07.646Z,98366.63
2022-11-08T22:48:17.252Z,98370.25
2022-11-08T22:51:23.951Z,98380.00
2022-11-08T22:54:29.549Z,98376.63
2022-11-08T22:57:35.983Z,98380.31
2022-11-08T23:01:13.798Z,98377.47
2022-11-08T23:04:39.723Z,98376.63
2022-11-08T23:07:48.231Z,98380.31
2022-11-08T23:11:10.994Z,98374.22
2022-11-08T23:14:36.798Z,98370.69
2022-11-08T23:17:43.994Z,98371.53
2022-11-08T23:21:08.340Z,98375.22
2022-11-08T23:24:23.543Z,98375.22
2022-11-08T23:27:45.612Z,98368.44
2022-11-08T23:31:07.882Z,98377.22
2022-11-08T23:34:13.454Z,98375.50
2022-11-08T23:37:23.180Z,98375.50
2022-11-08T23:40:44.625Z,98359.34
2022-11-08T23:44:06.766Z,98376.41
2022-11-08T23:47:12.423Z,98368.59
2022-11-08T23:50:18.930Z,98375.66
2022-11-08T23:53:28.125Z,98373.97
2022-11-08T23:56:34.691Z,98365.56
2022-11-08T23:59:40.827Z,98375.78
